createdAt,value
2017-05-22T00:02:20.761Z,84.70
2017-05-22T00:04:49.000Z,84.80
2017-05-22T00:07:17.220Z,84.70
2017-05-22T00:09:45.486Z,84.80
2017-05-22T00:12:13.760Z,84.70
2017-05-22T00:14:42.219Z,84.60
2017-05-22T00:17:10.550Z,84.40
2017-05-22T00:19:38.800Z,84.20
2017-05-22T00:22:07.077Z,84.40
2017-05-22T00:24:35.350Z,84.50
2017-05-22T00:27:03.619Z,84.70
2017-05-22T00:29:31.864Z,85.20
2017-05-22T00:32:00.174Z,84.60
2017-05-22T00:34:28.441Z,84.20
2017-05-22T00:36:56.642Z,84.20
2017-05-22T00:39:24.895Z,83.70
2017-05-22T00:41:53.183Z,84.30
2017-05-22T00:44:21.451Z,84.00
2017-05-22T00:46:49.656Z,84.10
2017-05-22T00:49:17.885Z,84.20
2017-05-22T00:51:46.171Z,84.10
2017-05-22T00:54:14.438Z,84.20
2017-05-22T00:56:42.800Z,84.30
2017-05-22T00:59:11.107Z,84.20
2017-05-22T01:01:39.339Z,84.30
2017-05-22T01:04:07.651Z,84.10
2017-05-22T01:06:35.949Z,83.90
2017-05-22T01:09:04.159Z,83.70
2017-05-22T01:11:32.400Z,83.80
2017-05-22T01:14:00.623Z,83.80
2017-05-22T01:16:28.943Z,83.90
2017-05-22T01:18:57.199Z,83.90
2017-05-22T01:21:25.491Z,84.20
2017-05-22T01:23:53.726Z,83.60
2017-05-22T01:26:22.031Z,83.00
2017-05-22T01:28:50.259Z,83.00
2017-05-22T01:31:18.487Z,83.30
2017-05-22T01:33:46.728Z,83.00
2017-05-22T01:36:15.027Z,82.70
2017-05-22T01:38:43.252Z,83.60
2017-05-22T01:41:11.467Z,82.70
2017-05-22T01:43:39.690Z,82.90
2017-05-22T01:46:07.901Z,83.30
2017-05-22T01:48:36.144Z,83.00
2017-05-22T01:51:04.351Z,83.30
2017-05-22T01:53:32.748Z,82.80
2017-05-22T01:56:00.980Z,82.30
2017-05-22T01:58:29.192Z,82.00
2017-05-22T02:00:57.479Z,82.40
2017-05-22T02:03:25.715Z,82.60
2017-05-22T02:05:54.027Z,82.30
2017-05-22T02:08:22.291Z,82.40
2017-05-22T02:10:50.530Z,82.90
2017-05-22T02:13:18.843Z,83.30
2017-05-22T02:15:47.228Z,83.10
2017-05-22T02:18:15.462Z,82.80
2017-05-22T02:20:43.787Z,83.30
2017-05-22T02:23:12.013Z,83.70
2017-05-22T02:25:40.243Z,83.60
2017-05-22T02:28:08.511Z,84.10
2017-05-22T02:30:36.715Z,84.30
2017-05-22T02:33:05.068Z,84.50
2017-05-22T02:35:33.298Z,84.40
2017-05-22T02:38:01.600Z,84.20
2017-05-22T02:40:29.885Z,83.80
2017-05-22T02:42:58.152Z,84.10
2017-05-22T02:45:26.429Z,84.50
2017-05-22T02:47:54.658Z,84.50
2017-05-22T02:50:22.868Z,84.80
2017-05-22T02:52:51.127Z,84.50
2017-05-22T02:55:19.360Z,84.60
2017-05-22T02:57:47.575Z,84.50
2017-05-22T03:00:15.791Z,84.30
2017-05-22T03:02:44.050Z,84.40
2017-05-22T03:05:12.330Z,83.90
2017-05-22T03:07:40.611Z,84.50
2017-05-22T03:10:08.976Z,84.20
2017-05-22T03:12:37.197Z,84.30
2017-05-22T03:15:05.430Z,84.70
2017-05-22T03:17:33.667Z,84.20
2017-05-22T03:20:02.092Z,84.10
2017-05-22T03:22:30.336Z,84.10
2017-05-22T03:24:58.571Z,84.20
2017-05-22T03:27:26.786Z,84.40
2017-05-22T03:29:55.119Z,84.40
2017-05-22T03:32:23.347Z,84.20
2017-05-22T03:34:51.563Z,84.20
2017-05-22T03:37:19.809Z,83.60
2017-05-22T03:39:48.043Z,84.10
2017-05-22T03:42:16.267Z,83.80
2017-05-22T03:44:44.532Z,84.00
2017-05-22T03:47:12.763Z,84.00
2017-05-22T03:49:40.970Z,83.70
2017-05-22T03:52:09.227Z,83.10
2017-05-22T03:54:37.459Z,83.30
2017-05-22T03:57:05.691Z,84.00
2017-05-22T03:59:33.904Z,83.40
2017-05-22T04:02:02.151Z,84.10
2017-05-22T04:04:30.432Z,82.80
2017-05-22T04:06:58.639Z,81.80
2017-05-22T04:09:26.971Z,81.90
2017-05-22T04:11:55.271Z,82.40
2017-05-22T04:14:23.492Z,82.10
2017-05-22T04:16:51.795Z,82.60
2017-05-22T04:19:20.047Z,82.40
2017-05-22T04:21:48.251Z,81.80
2017-05-22T04:24:16.486Z,81.30
2017-05-22T04:26:44.706Z,81.50
2017-05-22T04:29:12.922Z,80.70
2017-05-22T04:31:41.243Z,80.50
2017-05-22T04:34:09.450Z,79.90
2017-05-22T04:36:37.694Z,79.90
2017-05-22T04:39:05.975Z,79.80
2017-05-22T04:41:34.251Z,79.10
2017-05-22T04:44:02.507Z,78.60
2017-05-22T04:46:30.791Z,79.20
2017-05-22T04:48:59.066Z,78.90
2017-05-22T04:51:27.355Z,79.30
2017-05-22T04:53:55.624Z,79.60
2017-05-22T04:56:23.856Z,79.20
2017-05-22T04:58:52.176Z,79.30
2017-05-22T05:01:20.403Z,78.50
2017-05-22T05:03:48.626Z,78.60
2017-05-22T05:06:16.850Z,77.10
2017-05-22T05:08:45.248Z,77.50
2017-05-22T05:11:13.542Z,77.80
2017-05-22T05:13:41.897Z,78.10
2017-05-22T05:16:10.223Z,77.00
2017-05-22T05:18:38.477Z,77.20
2017-05-22T05:21:06.694Z,77.10
2017-05-22T05:23:34.923Z,77.90
2017-05-22T05:26:03.151Z,77.80
2017-05-22T05:28:31.379Z,77.10
2017-05-22T05:30:59.713Z,76.60
2017-05-22T05:33:27.899Z,76.10
2017-05-22T05:35:56.119Z,76.40
2017-05-22T05:38:24.378Z,75.80
2017-05-22T05:40:52.655Z,76.20
2017-05-22T05:43:20.862Z,75.70
2017-05-22T05:45:49.111Z,74.60
2017-05-22T05:48:17.327Z,74.00
2017-05-22T05:50:45.531Z,74.30
2017-05-22T05:53:13.927Z,73.80
2017-05-22T05:55:42.204Z,74.00
2017-05-22T05:58:10.423Z,73.20
2017-05-22T06:00:38.677Z,72.60
2017-05-22T06:03:06.878Z,71.90
2017-05-22T06:05:35.204Z,72.40
2017-05-22T06:08:03.451Z,73.10
2017-05-22T06:10:31.720Z,72.80
2017-05-22T06:13:00.088Z,72.90
2017-05-22T06:15:28.415Z,73.20
2017-05-22T06:17:56.674Z,73.00
2017-05-22T06:20:24.902Z,72.60
2017-05-22T06:22:53.129Z,73.70
2017-05-22T06:25:21.422Z,72.90
2017-05-22T06:27:49.768Z,73.00
2017-05-22T06:30:17.995Z,72.50
2017-05-22T06:32:46.237Z,72.10
2017-05-22T06:35:14.520Z,71.70
2017-05-22T06:37:42.735Z,71.70
2017-05-22T06:40:10.955Z,71.60
2017-05-22T06:42:39.178Z,72.00
2017-05-22T06:45:07.434Z,71.00
2017-05-22T06:47:35.683Z,71.40
2017-05-22T06:50:03.909Z,70.30
2017-05-22T06:52:32.159Z,70.00
2017-05-22T06:55:00.382Z,71.00
2017-05-22T06:57:28.680Z,70.80
2017-05-22T06:59:56.912Z,71.00
2017-05-22T07:02:25.157Z,69.80
2017-05-22T07:04:53.408Z,69.50
2017-05-22T07:07:21.682Z,68.70
2017-05-22T07:09:49.946Z,69.00
2017-05-22T07:12:18.608Z,67.80
2017-05-22T07:14:46.934Z,66.00
2017-05-22T07:17:15.217Z,65.10
2017-05-22T07:19:43.413Z,65.50
2017-05-22T07:22:11.649Z,65.20
2017-05-22T07:24:39.874Z,65.30
2017-05-22T07:27:08.478Z,63.00
2017-05-22T07:29:36.712Z,63.60
2017-05-22T07:32:04.923Z,64.50
2017-05-22T07:34:33.214Z,64.40
2017-05-22T07:37:01.455Z,65.80
2017-05-22T07:39:29.690Z,65.10
2017-05-22T07:41:57.934Z,65.70
2017-05-22T07:44:26.204Z,67.10
2017-05-22T07:46:54.539Z,64.90
2017-05-22T07:49:22.782Z,66.50
2017-05-22T07:51:51.059Z,66.40
2017-05-22T07:54:19.279Z,65.60
2017-05-22T07:56:47.563Z,64.30
2017-05-22T07:59:15.846Z,64.70
2017-05-22T08:01:44.059Z,64.20
2017-05-22T08:04:12.423Z,64.40
2017-05-22T08:06:40.718Z,63.00
2017-05-22T08:09:08.956Z,62.90
2017-05-22T08:11:37.261Z,62.70
2017-05-22T08:14:05.527Z,62.50
2017-05-22T08:16:33.798Z,62.10
2017-05-22T08:19:02.007Z,61.70
2017-05-22T08:21:35.254Z,61.20
2017-05-22T08:24:03.640Z,59.60
2017-05-22T08:26:31.915Z,59.50
2017-05-22T08:29:00.191Z,59.90
2017-05-22T08:31:28.431Z,58.40
2017-05-22T08:33:56.665Z,57.70
2017-05-22T08:36:24.903Z,57.80
2017-05-22T08:38:53.154Z,58.40
2017-05-22T08:41:21.477Z,59.10
2017-05-22T08:43:49.719Z,58.00
2017-05-22T08:46:17.927Z,56.30
2017-05-22T08:48:46.139Z,57.40
2017-05-22T08:51:14.462Z,58.60
2017-05-22T08:53:42.680Z,59.30
2017-05-22T08:56:10.944Z,59.80
2017-05-22T08:58:39.196Z,60.00
2017-05-22T09:01:07.464Z,60.50
2017-05-22T09:03:35.735Z,59.80
2017-05-22T09:06:04.017Z,60.70
2017-05-22T09:08:32.259Z,60.00
2017-05-22T09:11:00.459Z,57.50
2017-05-22T09:13:28.700Z,57.70
2017-05-22T09:15:57.007Z,57.60
2017-05-22T09:18:25.215Z,58.00
2017-05-22T09:20:53.455Z,54.50
2017-05-22T09:23:21.664Z,52.80
2017-05-22T09:25:50.036Z,53.10
2017-05-22T09:28:18.251Z,53.80
2017-05-22T09:30:46.463Z,53.80
2017-05-22T09:33:14.708Z,52.90
2017-05-22T09:35:42.957Z,52.60
2017-05-22T09:38:11.165Z,52.90
2017-05-22T09:40:39.384Z,51.90
2017-05-22T09:43:07.637Z,50.40
2017-05-22T09:45:35.855Z,48.70
2017-05-22T09:48:04.063Z,49.30
2017-05-22T09:50:32.309Z,49.50
2017-05-22T09:53:00.540Z,50.80
2017-05-22T09:55:28.775Z,51.20
2017-05-22T09:57:57.061Z,49.80
2017-05-22T10:00:25.532Z,50.10
2017-05-22T10:02:53.727Z,50.80
2017-05-22T10:05:21.955Z,49.90
2017-05-22T10:07:50.180Z,49.10
2017-05-22T10:10:18.385Z,49.20
2017-05-22T10:12:46.652Z,49.60
2017-05-22T10:15:14.912Z,49.80
2017-05-22T10:17:43.106Z,50.40
2017-05-22T10:20:11.530Z,50.00
2017-05-22T10:22:38.974Z,49.90
2017-05-22T10:25:07.191Z,47.80
2017-05-22T10:27:35.475Z,48.00
2017-05-22T10:30:03.735Z,48.10
2017-05-22T10:32:31.965Z,45.90
2017-05-22T10:35:00.202Z,46.60
2017-05-22T10:37:28.439Z,46.60
2017-05-22T10:39:56.642Z,47.50
2017-05-22T10:42:24.885Z,47.70
2017-05-22T10:44:53.171Z,49.10
2017-05-22T10:50:13.411Z,46.10
2017-05-22T10:52:42.322Z,46.20
2017-05-22T10:55:10.614Z,44.70
2017-05-22T10:57:38.860Z,44.30
2017-05-22T11:00:07.081Z,44.00
2017-05-22T11:02:35.275Z,43.20
2017-05-22T11:05:03.542Z,43.20
2017-05-22T11:07:31.751Z,43.20
2017-05-22T11:10:00.123Z,44.10
2017-05-22T11:12:28.363Z,42.00
2017-05-22T11:14:56.572Z,40.50
2017-05-22T11:17:24.798Z,40.40
2017-05-22T11:19:53.036Z,39.50
2017-05-22T11:22:21.345Z,39.00
2017-05-22T11:24:49.566Z,40.90
2017-05-22T11:27:17.831Z,40.90
2017-05-22T11:29:46.096Z,40.10
2017-05-22T11:32:14.398Z,41.20
2017-05-22T11:34:42.624Z,41.10
2017-05-22T11:37:11.012Z,39.50
2017-05-22T11:39:39.207Z,40.50
2017-05-22T11:42:07.470Z,40.10
2017-05-22T11:44:35.729Z,40.30
2017-05-22T11:47:04.032Z,40.70
2017-05-22T11:49:32.255Z,41.50
2017-05-22T11:52:00.480Z,40.30
2017-05-22T11:54:28.787Z,41.70
2017-05-22T11:56:57.033Z,40.70
2017-05-22T11:59:25.231Z,39.70
2017-05-22T12:01:53.438Z,41.10
2017-05-22T12:04:21.707Z,41.50
2017-05-22T12:06:50.042Z,41.50
2017-05-22T12:09:18.315Z,41.80
2017-05-22T12:11:46.691Z,40.70
2017-05-22T12:14:15.012Z,40.40
2017-05-22T12:16:43.248Z,40.80
2017-05-22T12:19:11.508Z,39.60
2017-05-22T12:21:39.804Z,40.00
2017-05-22T12:24:08.018Z,41.10
2017-05-22T12:26:36.252Z,39.40
2017-05-22T12:29:04.478Z,39.20
2017-05-22T12:31:32.687Z,39.60
2017-05-22T12:34:00.971Z,38.90
2017-05-22T12:36:29.178Z,40.00
2017-05-22T12:38:57.411Z,39.20
2017-05-22T12:41:25.703Z,39.10
2017-05-22T12:43:53.924Z,39.40
2017-05-22T12:46:22.200Z,38.70
2017-05-22T12:48:50.458Z,38.20
2017-05-22T12:51:18.680Z,38.60
2017-05-22T12:53:46.884Z,37.80
2017-05-22T12:56:15.232Z,37.50
2017-05-22T12:58:43.453Z,38.10
2017-05-22T13:01:11.688Z,38.80
2017-05-22T13:03:40.091Z,38.00
2017-05-22T13:06:08.339Z,36.80
2017-05-22T13:08:36.619Z,36.10
2017-05-22T13:11:05.368Z,36.00
2017-05-22T13:13:33.643Z,36.70
2017-05-22T13:16:01.947Z,36.40
2017-05-22T13:18:30.222Z,35.10
2017-05-22T13:20:58.469Z,35.80
2017-05-22T13:23:26.719Z,36.80
2017-05-22T13:25:55.025Z,38.30
2017-05-22T13:28:23.335Z,37.90
2017-05-22T13:30:51.613Z,38.20
2017-05-22T13:33:19.844Z,37.90
2017-05-22T13:35:48.165Z,37.60
2017-05-22T13:38:16.426Z,37.30
2017-05-22T13:40:44.803Z,35.80
2017-05-22T13:43:13.017Z,36.40
2017-05-22T13:45:41.241Z,37.10
2017-05-22T13:48:09.549Z,36.70
2017-05-22T13:50:37.825Z,35.60
2017-05-22T13:53:05.397Z,35.60
2017-05-22T13:55:33.621Z,36.60
2017-05-22T13:58:01.917Z,37.00
2017-05-22T14:00:30.191Z,35.70
2017-05-22T14:02:58.467Z,37.30
2017-05-22T14:05:26.751Z,37.70
2017-05-22T14:07:54.968Z,37.50
2017-05-22T14:10:23.295Z,36.90
2017-05-22T14:12:51.599Z,35.00
2017-05-22T14:15:19.851Z,35.90
2017-05-22T14:17:48.129Z,34.30
2017-05-22T14:20:16.338Z,33.30
2017-05-22T14:22:44.588Z,34.20
2017-05-22T14:25:12.852Z,33.50
2017-05-22T14:27:41.086Z,33.10
2017-05-22T14:30:09.348Z,33.40
2017-05-22T14:32:37.613Z,33.40
2017-05-22T14:35:05.828Z,34.20
2017-05-22T14:37:34.031Z,32.80
2017-05-22T14:40:02.272Z,33.00
2017-05-22T14:42:30.593Z,32.40
2017-05-22T14:44:58.811Z,32.60
2017-05-22T14:47:27.163Z,32.80
2017-05-22T14:49:55.407Z,32.70
2017-05-22T14:52:23.649Z,32.30
2017-05-22T14:54:51.887Z,31.80
2017-05-22T14:57:20.102Z,32.20
2017-05-22T14:59:48.512Z,31.30
2017-05-22T15:02:16.751Z,30.70
2017-05-22T15:04:45.046Z,31.10
2017-05-22T15:07:13.275Z,30.40
2017-05-22T15:09:41.598Z,30.00
2017-05-22T15:12:09.855Z,29.40
2017-05-22T15:14:38.139Z,29.00
2017-05-22T15:17:06.410Z,30.00
2017-05-22T15:19:34.720Z,31.20
2017-05-22T15:22:02.938Z,30.80
2017-05-22T15:24:31.259Z,30.50
2017-05-22T15:26:59.474Z,30.50
2017-05-22T15:29:27.725Z,27.90
2017-05-22T15:31:55.972Z,27.00
2017-05-22T15:34:24.221Z,25.50
2017-05-22T15:36:52.571Z,25.00
2017-05-22T15:39:20.783Z,23.10
2017-05-22T15:41:49.087Z,22.20
2017-05-22T15:44:17.459Z,20.30
2017-05-22T15:46:45.727Z,20.30
2017-05-22T15:49:13.961Z,20.20
2017-05-22T15:51:42.167Z,20.60
2017-05-22T15:54:10.407Z,21.70
2017-05-22T15:56:38.718Z,22.80
2017-05-22T15:59:06.999Z,24.40
2017-05-22T16:01:35.292Z,25.60
2017-05-22T16:04:03.551Z,27.00
2017-05-22T16:06:31.791Z,27.30
2017-05-22T16:09:00.099Z,26.90
2017-05-22T16:11:28.407Z,26.70
2017-05-22T16:13:56.639Z,24.70
2017-05-22T16:16:24.842Z,24.10
2017-05-22T16:18:53.103Z,23.00
2017-05-22T16:21:21.395Z,22.90
2017-05-22T16:23:49.603Z,23.40
2017-05-22T16:26:17.863Z,24.10
2017-05-22T16:28:46.155Z,23.80
2017-05-22T16:31:14.440Z,23.10
2017-05-22T16:33:42.659Z,23.50
2017-05-22T16:36:10.890Z,22.20
2017-05-22T16:38:39.287Z,21.90
2017-05-22T16:41:07.653Z,21.70
2017-05-22T16:43:35.990Z,21.90
2017-05-22T16:46:04.256Z,21.90
2017-05-22T16:48:32.553Z,21.90
2017-05-22T16:51:00.820Z,21.90
2017-05-22T16:53:29.076Z,21.70
2017-05-22T16:55:57.299Z,22.40
2017-05-22T16:58:25.516Z,22.70
2017-05-22T17:00:53.754Z,22.80
2017-05-22T17:03:22.063Z,24.10
2017-05-22T17:05:50.285Z,25.30
2017-05-22T17:08:18.787Z,26.00
2017-05-22T17:10:47.097Z,26.50
2017-05-22T17:13:15.360Z,26.20
2017-05-22T17:15:43.568Z,26.10
2017-05-22T17:18:11.817Z,25.60
2017-05-22T17:20:40.028Z,25.30
2017-05-22T17:23:08.265Z,24.70
2017-05-22T17:25:36.513Z,24.70
2017-05-22T17:28:04.723Z,25.50
2017-05-22T17:30:32.968Z,26.20
2017-05-22T17:33:01.233Z,26.90
2017-05-22T17:35:29.458Z,28.00
2017-05-22T17:37:57.697Z,28.50
2017-05-22T17:40:25.899Z,29.30
2017-05-22T17:42:54.119Z,29.90
2017-05-22T17:45:22.387Z,31.00
2017-05-22T17:47:50.707Z,31.10
2017-05-22T17:50:19.010Z,32.10
2017-05-22T17:52:47.306Z,32.80
2017-05-22T17:55:15.543Z,33.80
2017-05-22T17:57:43.846Z,34.90
2017-05-22T18:00:12.083Z,36.00
2017-05-22T18:02:40.303Z,37.00
2017-05-22T18:05:08.536Z,37.50
2017-05-22T18:07:36.819Z,38.30
2017-05-22T18:10:05.063Z,38.50
2017-05-22T18:12:33.462Z,39.20
2017-05-22T18:15:01.686Z,40.10
2017-05-22T18:17:29.928Z,40.10
2017-05-22T18:19:58.186Z,39.70
2017-05-22T18:22:26.463Z,40.10
2017-05-22T18:24:54.740Z,40.40
2017-05-22T18:27:23.031Z,40.20
2017-05-22T18:29:51.246Z,40.40
2017-05-22T18:32:19.463Z,40.80
2017-05-22T18:34:47.839Z,41.80
2017-05-22T18:37:16.119Z,41.80
2017-05-22T18:39:44.327Z,42.40
2017-05-22T18:42:12.659Z,43.20
2017-05-22T18:44:40.863Z,43.90
2017-05-22T18:47:09.137Z,44.40
2017-05-22T18:49:37.463Z,44.80
2017-05-22T18:52:05.667Z,45.20
2017-05-22T18:54:33.964Z,45.30
2017-05-22T18:57:02.190Z,44.60
2017-05-22T18:59:30.392Z,44.90
2017-05-22T19:01:58.603Z,45.10
2017-05-22T19:04:26.843Z,45.70
2017-05-22T19:06:55.135Z,46.40
2017-05-22T19:09:23.395Z,46.60
2017-05-22T19:11:51.675Z,47.10
2017-05-22T19:14:19.887Z,47.30
2017-05-22T19:16:48.126Z,47.70
2017-05-22T19:19:16.370Z,48.40
2017-05-22T19:21:44.643Z,48.00
2017-05-22T19:24:12.934Z,48.40
2017-05-22T19:26:40.407Z,48.20
2017-05-22T19:29:08.737Z,48.50
2017-05-22T19:31:37.047Z,49.20
2017-05-22T19:34:05.311Z,49.70
2017-05-22T19:36:33.542Z,50.40
2017-05-22T19:39:01.770Z,50.80
2017-05-22T19:41:30.131Z,51.10
2017-05-22T19:43:58.439Z,51.60
2017-05-22T19:46:26.739Z,51.80
2017-05-22T19:48:54.987Z,52.10
2017-05-22T19:51:23.242Z,52.70
2017-05-22T19:53:51.564Z,53.00
2017-05-22T19:56:19.807Z,53.60
2017-05-22T19:58:48.085Z,57.20
2017-05-22T20:01:16.324Z,59.30
2017-05-22T20:03:44.529Z,61.20
2017-05-22T20:06:12.802Z,62.70
2017-05-22T20:08:41.015Z,63.80
2017-05-22T20:11:09.358Z,64.90
2017-05-22T20:13:37.711Z,66.00
2017-05-22T20:16:05.905Z,66.80
2017-05-22T20:18:34.185Z,68.20
2017-05-22T20:21:02.425Z,69.20
2017-05-22T20:23:30.734Z,70.40
2017-05-22T20:26:00.244Z,71.30
2017-05-22T20:28:28.454Z,71.90
2017-05-22T20:30:56.693Z,72.70
2017-05-22T20:33:24.965Z,73.70
2017-05-22T20:35:53.197Z,74.30
2017-05-22T20:38:21.403Z,75.00
2017-05-22T20:40:49.641Z,75.20
2017-05-22T20:43:17.871Z,75.80
2017-05-22T20:45:46.076Z,76.40
2017-05-22T20:48:14.285Z,77.00
2017-05-22T20:50:42.579Z,77.30
2017-05-22T20:53:10.889Z,78.20
2017-05-22T20:55:39.163Z,78.00
2017-05-22T20:58:07.405Z,77.90
2017-05-22T21:00:35.617Z,78.20
2017-05-22T21:03:03.839Z,78.10
2017-05-22T21:05:32.227Z,78.30
2017-05-22T21:08:00.511Z,78.50
2017-05-22T21:10:28.730Z,78.70
2017-05-22T21:12:56.961Z,78.90
2017-05-22T21:15:25.239Z,78.90
2017-05-22T21:17:53.469Z,78.50
2017-05-22T21:20:21.788Z,79.00
2017-05-22T21:22:49.995Z,79.10
2017-05-22T21:25:18.239Z,78.80
2017-05-22T21:27:46.467Z,78.90
2017-05-22T21:30:14.882Z,78.80
2017-05-22T21:32:43.265Z,79.10
2017-05-22T21:35:11.542Z,79.00
2017-05-22T21:37:39.891Z,79.00
2017-05-22T21:40:08.099Z,78.60
2017-05-22T21:42:36.328Z,78.60
2017-05-22T21:45:04.551Z,78.50
2017-05-22T21:47:32.761Z,79.00
2017-05-22T21:50:01.022Z,79.00
2017-05-22T21:52:29.343Z,79.10
2017-05-22T21:54:57.552Z,79.30
2017-05-22T21:57:25.792Z,79.50
2017-05-22T21:59:54.079Z,79.60
2017-05-22T22:02:22.358Z,80.20
2017-05-22T22:04:50.599Z,79.90
2017-05-22T22:07:18.908Z,81.00
2017-05-22T22:09:47.200Z,80.40
2017-05-22T22:12:15.463Z,80.50
2017-05-22T22:14:43.735Z,80.90
2017-05-22T22:17:12.091Z,81.10
2017-05-22T22:19:40.303Z,81.10
2017-05-22T22:22:08.567Z,81.10
2017-05-22T22:24:36.847Z,80.90
2017-05-22T22:27:05.135Z,80.80
2017-05-22T22:29:33.426Z,81.20
2017-05-22T22:32:01.639Z,81.70
2017-05-22T22:34:30.002Z,80.90
2017-05-22T22:36:58.321Z,80.80
2017-05-22T22:39:26.525Z,81.10
2017-05-22T22:41:54.750Z,81.20
2017-05-22T22:44:22.987Z,81.50
2017-05-22T22:46:51.220Z,82.00
2017-05-22T22:49:19.487Z,82.30
2017-05-22T22:51:47.699Z,82.30
2017-05-22T22:54:15.931Z,82.10
2017-05-22T22:56:44.215Z,82.40
2017-05-22T22:59:12.493Z,82.40
2017-05-22T23:01:40.719Z,82.80
2017-05-22T23:04:09.043Z,83.00
2017-05-22T23:06:37.319Z,83.20
2017-05-22T23:09:05.598Z,82.90
2017-05-22T23:11:33.867Z,83.10
2017-05-22T23:14:02.144Z,83.60
2017-05-22T23:16:30.371Z,83.40
2017-05-22T23:18:58.694Z,82.90
2017-05-22T23:21:26.908Z,82.70
2017-05-22T23:23:55.147Z,82.90
2017-05-22T23:26:23.428Z,83.20
2017-05-22T23:28:51.706Z,83.70
2017-05-22T23:31:19.978Z,83.90
2017-05-22T23:33:48.198Z,84.00
2017-05-22T23:36:16.438Z,83.70
2017-05-22T23:38:44.707Z,84.30
2017-05-22T23:41:12.943Z,83.40
2017-05-22T23:43:41.175Z,83.20
2017-05-22T23:46:09.526Z,83.50
2017-05-22T23:48:37.875Z,83.50
2017-05-22T23:51:06.171Z,83.50
2017-05-22T23:53:34.446Z,83.40
2017-05-22T23:56:02.724Z,83.50
2017-05-22T23:58:30.985Z,83.30
